Hunt, Arkansas
Current Conditions -  °F | °C
As of 12:53 PM on Monday 20 Oct 2014 (Local Time) from KRUE Reporting Station
Overcast Overcast  
Wind Chill: 66°   Ceiling: 5500
Heat Index: 66°   Visibility: 10mi
Dew Point: 54°   Wind: 3mph
Humidity: 65%   Direction: NA
Pressure: 30.08"   Gusts: NA
Location:  35.4189°N, 93.6161°W
Report Text: KRUE 201753Z AUTO VRB03KT 10SM FEW031 BKN055 OVC085 19/12 A3008 RMK AO2 SLP180 T01890122 10194 20100 58012
Loading
Personal Weather Stations






























Interactive Weather Map New forecast layout! Learn more

10-Day Weather Forecast

Advertisements
Track Severe Weather on mobile